Time;durP1;ratioP1;P1;durP2;ratioP2;P2;SDS_P1;SDS_P2;PMS_P1;PMS_P2;Temp;Humidity;BMP_temperature;BMP_pressure;BME280_temperature;BME280_humidity;BME280_pressure;Samples;Min_cycle;Max_cycle;Signal;HPM_P1;HPM_P2
2021/06/14 00:00:10;;;;;;;3.85;1.98;;;19.20;99.90;;;;;;5001743;28;20129;-95
2021/06/14 00:02:37;;;;;;;4.03;2.30;;;19.20;99.90;;;;;;4998289;28;20085;-95
2021/06/14 00:05:05;;;;;;;4.95;2.05;;;19.20;99.90;;;;;;4996342;28;20057;-94
2021/06/14 00:07:31;;;;;;;2.88;1.67;;;19.10;99.90;;;;;;4996878;28;20019;-93
2021/06/14 00:09:57;;;;;;;2.33;2.10;;;19.10;99.90;;;;;;4997343;28;20031;-94
2021/06/14 00:12:23;;;;;;;3.55;2.33;;;19.10;99.90;;;;;;4997058;28;20033;-94
2021/06/14 00:14:50;;;;;;;4.00;2.35;;;19.10;99.90;;;;;;4996875;28;20451;-93
2021/06/14 00:17:16;;;;;;;5.15;2.30;;;19.20;99.90;;;;;;4998668;28;20081;-94
2021/06/14 00:19:43;;;;;;;4.47;2.38;;;19.20;99.90;;;;;;4999587;28;20039;-94
2021/06/14 00:22:09;;;;;;;3.85;2.67;;;19.10;99.90;;;;;;4998833;28;20042;-94
2021/06/14 00:24:35;;;;;;;4.25;3.22;;;19.10;99.90;;;;;;4998998;28;20026;-94
2021/06/14 00:27:00;;;;;;;4.40;2.92;;;19.10;99.90;;;;;;4998913;28;20034;-95
2021/06/14 00:29:27;;;;;;;5.57;3.08;;;19.00;99.90;;;;;;4999055;28;20630;-95
2021/06/14 00:31:53;;;;;;;5.03;3.00;;;19.00;99.90;;;;;;4999264;28;20030;-94
2021/06/14 00:34:20;;;;;;;6.55;3.55;;;18.90;99.90;;;;;;4998949;28;20165;-93
2021/06/14 00:36:46;;;;;;;6.60;3.20;;;18.90;99.90;;;;;;4999688;28;20062;-94
2021/06/14 00:39:11;;;;;;;8.07;3.38;;;18.90;99.90;;;;;;5000485;28;20085;-95
2021/06/14 00:41:37;;;;;;;5.35;3.15;;;18.80;99.90;;;;;;5001174;28;20030;-95
2021/06/14 00:44:05;;;;;;;6.45;3.72;;;18.80;99.90;;;;;;5003123;28;20066;-95
2021/06/14 00:46:31;;;;;;;6.75;3.75;;;18.80;99.90;;;;;;5004105;28;20027;-96
2021/06/14 00:48:57;;;;;;;5.55;4.25;;;18.80;99.90;;;;;;5006080;28;20091;-95
2021/06/14 00:51:26;;;;;;;7.50;4.05;;;18.70;99.90;;;;;;5006749;28;20037;-95
2021/06/14 00:53:58;;;;;;;3.00;2.67;;;18.70;99.90;;;;;;5006907;28;20034;-95
2021/06/14 00:56:27;;;;;;;8.40;3.30;;;18.70;99.90;;;;;;5006368;28;20026;-95
2021/06/14 00:58:53;;;;;;;8.00;3.85;;;18.70;99.90;;;;;;5007479;28;20031;-95
2021/06/14 01:01:22;;;;;;;8.45;3.85;;;18.60;99.90;;;;;;5006146;28;20046;-94
2021/06/14 01:03:47;;;;;;;7.35;4.38;;;18.60;99.90;;;;;;5005098;28;20793;-95
2021/06/14 01:06:16;;;;;;;12.90;4.95;;;18.60;99.90;;;;;;5001423;28;20030;-95
2021/06/14 01:08:46;;;;;;;7.10;4.50;;;18.60;99.90;;;;;;5000528;28;20042;-93
2021/06/14 01:11:33;;;;;;;9.93;4.30;;;18.50;99.90;;;;;;5000078;28;20026;-94
2021/06/14 01:14:23;;;;;;;5.20;2.70;;;18.50;99.90;;;;;;5001907;28;20027;-95
2021/06/14 01:17:01;;;;;;;5.22;3.72;;;18.50;99.90;;;;;;5003962;28;20534;-95
2021/06/14 01:19:55;;;;;;;6.65;3.92;;;18.50;99.90;;;;;;5004006;28;20057;-95
2021/06/14 01:22:50;;;;;;;6.38;3.55;;;18.40;99.90;;;;;;5003744;28;20042;-96
2021/06/14 02:18:01;;;;;;;5.07;2.15;;;17.90;99.90;;;;;;5106605;23;20039;-96
2021/06/14 07:11:44;;;;;;;5.30;3.00;;;18.00;99.90;;;;;;5012812;28;20023;-95
2021/06/14 07:14:21;;;;;;;7.43;3.90;;;17.90;99.90;;;;;;4996874;28;20039;-94
2021/06/14 07:16:51;;;;;;;4.65;3.55;;;17.90;99.90;;;;;;4999816;28;20077;-95
2021/06/14 07:27:38;;;;;;;7.68;4.55;;;17.90;99.90;;;;;;1114238;22;20495;-93
2021/06/14 07:30:07;;;;;;;9.52;4.40;;;17.90;99.90;;;;;;5035596;28;20049;-94
2021/06/14 07:32:32;;;;;;;7.95;3.88;;;17.90;99.90;;;;;;5035461;28;20049;-94
2021/06/14 07:35:03;;;;;;;6.70;4.05;;;18.00;99.90;;;;;;5031465;28;20025;-96
2021/06/14 07:37:29;;;;;;;8.27;3.92;;;18.00;99.90;;;;;;5036086;28;20128;-96
2021/06/14 07:39:55;;;;;;;7.30;3.92;;;18.10;99.90;;;;;;5027973;28;20041;-95
2021/06/14 07:42:23;;;;;;;5.75;3.45;;;18.10;99.90;;;;;;5031577;28;20028;-95
2021/06/14 07:44:56;;;;;;;9.05;4.13;;;18.20;99.90;;;;;;5034211;28;20037;-95
2021/06/14 07:47:21;;;;;;;13.73;3.90;;;18.30;99.90;;;;;;5016615;28;20030;-95
2021/06/14 07:49:52;;;;;;;5.13;3.08;;;18.30;99.90;;;;;;5011303;28;20025;-95
2021/06/14 07:52:26;;;;;;;;;;;18.40;99.90;;;;;;5016660;28;20045;-95
2021/06/14 07:57:34;;;;;;;7.30;3.67;;;18.60;99.90;;;;;;5941264;22;20024;-95
2021/06/14 08:00:04;;;;;;;4.93;3.67;;;18.70;99.90;;;;;;5056578;28;20043;-95
2021/06/14 08:02:50;;;;;;;7.18;3.80;;;18.80;99.90;;;;;;5058722;28;20048;-95
2021/06/14 08:05:43;;;;;;;10.18;4.07;;;18.90;99.90;;;;;;5424329;22;20110;31
2021/06/14 08:15:58;;;;;;;4.10;2.97;;;19.00;99.90;;;;;;5018809;28;20046;-96
2021/06/14 08:26:35;;;;;;;8.90;3.58;;;19.00;99.90;;;;;;5017121;28;20037;-96
2021/06/14 08:29:09;;;;;;;10.23;3.70;;;19.10;99.90;;;;;;4983343;28;20035;-96
2021/06/14 08:31:41;;;;;;;8.18;3.70;;;19.00;99.90;;;;;;5011234;28;20116;-95
2021/06/14 08:34:10;;;;;;;12.10;3.63;;;19.00;99.90;;;;;;5003590;28;20037;-95
2021/06/14 08:36:39;;;;;;;9.15;3.95;;;18.90;99.90;;;;;;5018364;28;20026;-95
2021/06/14 08:39:07;;;;;;;6.78;3.58;;;18.70;99.90;;;;;;4995533;28;20477;-94
2021/06/14 08:41:37;;;;;;;7.65;3.53;;;18.60;99.90;;;;;;5005480;28;20014;-96
2021/06/14 08:44:06;;;;;;;6.53;3.17;;;18.50;99.90;;;;;;5007517;28;20022;-96
2021/06/14 08:46:45;;;;;;;6.72;2.72;;;18.40;99.90;;;;;;4996370;28;20035;-96
2021/06/14 08:49:31;;;;;;;9.70;3.47;;;18.30;99.90;;;;;;4994380;28;20033;-96
2021/06/14 08:52:08;;;;;;;7.57;3.10;;;18.20;99.90;;;;;;5005358;28;20053;-96
2021/06/14 08:54:41;;;;;;;7.05;3.00;;;18.10;99.90;;;;;;5002290;28;20018;-96
2021/06/14 08:57:22;;;;;;;9.00;2.63;;;18.00;99.90;;;;;;5020970;28;20045;-95
2021/06/14 08:59:53;;;;;;;6.43;3.13;;;17.90;99.90;;;;;;5019780;28;20048;-96
2021/06/14 09:54:38;;;;;;;2.15;1.05;;;18.40;99.90;;;;;;5326086;22;20032;-95
2021/06/14 14:31:13;;;;;;;5.80;1.10;;;22.50;56.00;;;;;;5883761;22;21002;-96
2021/06/14 14:46:53;;;;;;;5.82;0.90;;;22.60;54.60;;;;;;6157017;22;20027;-94
2021/06/14 14:49:25;;;;;;;7.82;1.70;;;22.30;55.00;;;;;;4974943;29;20051;-96
2021/06/14 14:52:04;;;;;;;8.68;1.50;;;22.10;55.50;;;;;;4994000;28;20126;-94
2021/06/14 15:07:43;;;;;;;7.10;1.30;;;21.30;58.20;;;;;;5021523;28;20041;-95
2021/06/14 15:10:11;;;;;;;6.55;1.38;;;21.20;58.70;;;;;;5017108;28;20024;-94
2021/06/14 15:12:36;;;;;;;6.55;2.25;;;21.00;59.00;;;;;;5017208;28;20014;-95
2021/06/14 15:15:07;;;;;;;6.65;1.83;;;20.80;59.20;;;;;;5037514;28;20049;-94
2021/06/14 15:22:49;;;;;;;3.60;0.90;;;20.40;59.60;;;;;;5244451;22;19932;-93
2021/06/14 15:25:18;;;;;;;6.95;1.30;;;20.10;60.00;;;;;;5013106;28;20464;-94
2021/06/14 15:27:51;;;;;;;7.35;1.40;;;20.00;60.40;;;;;;5012174;28;20076;-94
2021/06/14 15:30:19;;;;;;;8.77;1.45;;;20.00;60.90;;;;;;5012110;28;20052;-94
2021/06/14 15:32:47;;;;;;;8.15;1.40;;;20.00;61.10;;;;;;5005859;28;20030;-94
2021/06/14 15:35:14;;;;;;;8.52;1.30;;;19.90;61.20;;;;;;5011836;28;20018;-94
2021/06/14 15:37:40;;;;;;;5.32;1.17;;;19.80;61.50;;;;;;5011545;28;20029;-95
2021/06/14 15:40:07;;;;;;;6.63;1.38;;;19.60;61.70;;;;;;5028275;28;20033;-93
2021/06/14 15:42:32;;;;;;;6.63;1.13;;;19.50;62.00;;;;;;5012897;28;20042;-94
2021/06/14 15:47:52;;;;;;;7.97;1.20;;;19.00;62.80;;;;;;5875952;22;20066;-96
2021/06/14 15:50:19;;;;;;;6.75;1.35;;;18.70;63.60;;;;;;5016991;28;20014;-96
2021/06/14 15:52:46;;;;;;;8.07;1.60;;;18.60;64.30;;;;;;5016343;28;20002;-95
2021/06/14 15:55:18;;;;;;;9.73;1.70;;;18.60;64.60;;;;;;5012440;28;20050;-95
2021/06/14 15:57:45;;;;;;;5.80;1.35;;;18.60;64.90;;;;;;5015854;28;20038;-96
2021/06/14 16:00:20;;;;;;;10.70;2.25;;;18.70;64.90;;;;;;5013314;28;20049;-94
2021/06/14 16:02:55;;;;;;;8.70;1.90;;;18.60;64.70;;;;;;5014153;28;20014;-95
2021/06/14 16:05:23;;;;;;;4.63;1.50;;;18.50;64.80;;;;;;5012169;28;20026;-96
2021/06/14 16:08:05;;;;;;;8.15;1.52;;;18.50;65.40;;;;;;5013275;28;20026;-95
2021/06/14 16:10:32;;;;;;;8.18;1.60;;;18.60;65.80;;;;;;5014240;28;20029;-95
2021/06/14 16:13:01;;;;;;;6.95;1.55;;;18.60;65.70;;;;;;5004252;28;20039;-96
2021/06/14 16:15:28;;;;;;;5.40;1.13;;;18.60;65.90;;;;;;5007884;28;20021;-95
2021/06/14 16:17:54;;;;;;;7.07;1.63;;;18.60;66.20;;;;;;5020607;28;20033;-94
2021/06/14 16:20:20;;;;;;;6.53;1.38;;;18.60;66.00;;;;;;5005279;28;20035;-95
2021/06/14 16:22:47;;;;;;;8.60;1.60;;;18.60;66.00;;;;;;4996582;28;20448;-96
2021/06/14 16:25:15;;;;;;;7.95;1.80;;;18.60;66.20;;;;;;5013529;28;20062;-94
2021/06/14 16:27:41;;;;;;;6.93;1.60;;;18.60;65.90;;;;;;5016103;28;20030;-95
2021/06/14 16:30:10;;;;;;;5.97;1.10;;;18.50;65.90;;;;;;5017832;28;20026;-94
2021/06/14 16:32:36;;;;;;;6.43;1.60;;;18.40;66.00;;;;;;5022531;28;20018;-96
2021/06/14 16:35:03;;;;;;;9.05;1.58;;;18.40;65.80;;;;;;5021646;28;20263;-95
2021/06/14 16:37:29;;;;;;;10.93;2.25;;;18.20;65.30;;;;;;5021637;28;20030;-94
2021/06/14 17:58:53;;;;;;;7.75;1.52;;;16.40;71.80;;;;;;4974945;28;20043;-92
2021/06/14 18:01:18;;;;;;;6.35;2.25;;;16.40;71.90;;;;;;4976452;28;20031;-93
2021/06/14 18:03:44;;;;;;;11.30;1.83;;;16.50;72.10;;;;;;4961616;28;20547;-91
2021/06/14 18:06:10;;;;;;;9.38;1.48;;;16.50;72.10;;;;;;4961040;28;20564;-90
2021/06/14 18:08:35;;;;;;;10.05;1.52;;;16.50;72.20;;;;;;4962304;28;20026;-90
2021/06/14 18:11:01;;;;;;;7.00;1.58;;;16.50;72.30;;;;;;4961969;28;20026;-90
2021/06/14 18:13:27;;;;;;;7.78;1.88;;;16.50;72.50;;;;;;4961425;28;20031;-90
2021/06/14 18:15:52;;;;;;;10.40;1.85;;;16.50;72.50;;;;;;4961546;28;20023;-90
2021/06/14 18:18:18;;;;;;;12.77;2.05;;;16.50;72.70;;;;;;4961454;28;20125;-91
2021/06/14 18:20:44;;;;;;;11.32;2.08;;;16.50;72.80;;;;;;4964287;28;20053;-93
2021/06/14 18:23:16;;;;;;;8.65;1.60;;;16.40;72.90;;;;;;4966972;28;20029;-95
2021/06/14 18:25:41;;;;;;;6.05;1.65;;;16.40;73.00;;;;;;4966505;28;20023;-96
2021/06/14 18:28:07;;;;;;;9.43;1.75;;;16.30;73.30;;;;;;4984710;28;20432;-93
2021/06/14 18:30:35;;;;;;;11.32;1.88;;;16.30;73.40;;;;;;4979821;28;20026;-93
2021/06/14 18:33:16;;;;;;;10.52;2.20;;;16.40;73.60;;;;;;4982400;28;20027;-93
2021/06/14 18:35:47;;;;;;;5.00;1.60;;;16.30;73.60;;;;;;4964682;28;20041;-94
2021/06/14 18:38:21;;;;;;;8.73;2.20;;;16.30;73.70;;;;;;4963165;28;20031;-93
2021/06/14 18:40:49;;;;;;;9.07;1.77;;;16.30;73.90;;;;;;4961331;28;20038;-93
2021/06/14 18:43:16;;;;;;;8.38;1.70;;;16.40;74.00;;;;;;4961969;28;20050;-93
2021/06/14 18:45:45;;;;;;;7.13;1.58;;;16.40;74.00;;;;;;4959493;28;20043;-92
2021/06/14 18:48:11;;;;;;;11.05;1.80;;;16.40;74.00;;;;;;4959129;28;20031;-92
2021/06/14 18:50:38;;;;;;;8.98;1.98;;;16.30;74.00;;;;;;4965894;28;20023;-96
2021/06/14 18:53:04;;;;;;;7.07;1.95;;;16.30;74.10;;;;;;4951621;28;20066;-93
2021/06/14 18:55:39;;;;;;;8.80;1.80;;;16.30;74.30;;;;;;4945524;28;20058;-93
2021/06/14 18:58:05;;;;;;;8.10;1.83;;;16.20;74.50;;;;;;4960010;28;20058;-95
2021/06/14 19:00:32;;;;;;;11.85;2.47;;;16.00;74.70;;;;;;4962834;28;20114;-95
2021/06/14 19:02:58;;;;;;;11.93;1.98;;;15.90;75.20;;;;;;4959487;28;20034;-94
2021/06/14 19:05:24;;;;;;;9.48;1.80;;;15.80;75.40;;;;;;4954113;28;20404;-93
2021/06/14 19:07:54;;;;;;;7.20;1.45;;;15.80;75.80;;;;;;4947790;28;20023;-94
2021/06/14 19:10:21;;;;;;;8.43;1.48;;;15.80;76.10;;;;;;4951245;28;20030;-93
2021/06/14 19:12:47;;;;;;;11.85;2.03;;;15.80;76.10;;;;;;4966866;28;20034;-93
2021/06/14 19:15:17;;;;;;;9.43;1.52;;;15.80;76.20;;;;;;4954179;28;20023;-94
2021/06/14 19:17:47;;;;;;;8.75;2.33;;;15.80;76.30;;;;;;4948963;28;20049;-93
2021/06/14 19:20:35;;;;;;;5.65;1.50;;;15.80;76.50;;;;;;4969178;28;20054;-93
2021/06/14 19:23:03;;;;;;;8.00;1.80;;;15.70;76.60;;;;;;4971158;28;20097;-92
2021/06/14 19:25:35;;;;;;;8.02;2.03;;;15.70;76.90;;;;;;4956759;28;20022;-93
2021/06/14 19:28:01;;;;;;;12.82;2.28;;;15.70;77.20;;;;;;4952529;28;20035;-93
2021/06/14 19:30:29;;;;;;;10.50;1.73;;;15.60;77.50;;;;;;4962074;28;20031;-93
2021/06/14 19:32:55;;;;;;;6.07;1.52;;;15.60;77.70;;;;;;4963945;28;20031;-92
2021/06/14 19:35:21;;;;;;;9.63;1.88;;;15.60;77.90;;;;;;4960026;28;20038;-93
2021/06/14 19:37:47;;;;;;;9.20;1.85;;;15.50;78.00;;;;;;4963882;28;20047;-92
2021/06/14 19:40:14;;;;;;;5.82;1.70;;;15.50;78.20;;;;;;4958527;28;20035;-93
2021/06/14 19:42:42;;;;;;;10.23;2.67;;;15.40;78.40;;;;;;4961099;28;20023;-93
2021/06/14 19:45:13;;;;;;;10.15;1.73;;;15.30;78.70;;;;;;4971104;28;20039;-91
2021/06/14 19:47:39;;;;;;;9.95;2.17;;;15.30;79.00;;;;;;4957395;28;20029;-94
2021/06/14 19:50:11;;;;;;;13.10;2.20;;;15.30;79.10;;;;;;4952303;28;20027;-92
2021/06/14 19:52:37;;;;;;;9.02;1.75;;;15.20;79.40;;;;;;4966675;28;20110;-93
2021/06/14 19:55:14;;;;;;;12.52;1.92;;;15.20;79.80;;;;;;4954485;28;20053;-92
2021/06/14 19:57:40;;;;;;;8.43;1.98;;;15.10;79.90;;;;;;4950537;28;20055;-95
2021/06/14 20:00:10;;;;;;;11.95;1.77;;;15.00;80.20;;;;;;4951865;28;20045;-92
2021/06/14 20:02:37;;;;;;;8.05;2.03;;;15.00;80.60;;;;;;4950298;29;20028;-94
2021/06/14 20:05:07;;;;;;;12.35;2.17;;;14.90;80.90;;;;;;4966941;28;20063;-93
2021/06/14 20:07:33;;;;;;;9.45;2.13;;;14.80;81.20;;;;;;4935460;28;20026;-94
2021/06/14 20:09:58;;;;;;;5.95;1.65;;;14.80;81.60;;;;;;4968296;28;20477;-94
2021/06/14 20:12:24;;;;;;;8.52;2.05;;;14.80;82.00;;;;;;4951829;28;20504;-94
2021/06/14 20:14:51;;;;;;;9.88;1.60;;;14.70;82.20;;;;;;4947983;28;20321;-93
2021/06/14 20:17:17;;;;;;;11.80;2.08;;;14.70;82.50;;;;;;4958918;28;20031;-93
2021/06/14 20:19:42;;;;;;;15.07;2.03;;;14.70;82.60;;;;;;4967026;28;20058;-92
2021/06/14 20:22:08;;;;;;;7.45;1.70;;;14.70;82.90;;;;;;4953294;28;20022;-92
2021/06/14 20:24:34;;;;;;;10.73;2.33;;;14.60;83.20;;;;;;4961004;28;20033;-92
2021/06/14 20:27:25;;;;;;;11.75;2.05;;;14.70;83.50;;;;;;4966027;28;20043;-94
2021/06/14 20:29:52;;;;;;;;;;;14.60;83.60;;;;;;4957603;28;20043;-94
2021/06/14 20:32:25;;;;;;;14.90;2.00;;;14.70;83.80;;;;;;4958851;28;19917;-94
2021/06/14 20:34:55;;;;;;;10.95;1.73;;;14.70;83.90;;;;;;4966232;28;20058;-94
2021/06/14 20:37:22;;;;;;;9.80;2.20;;;14.60;84.00;;;;;;4959158;28;20023;-93
2021/06/14 20:39:48;;;;;;;11.10;2.15;;;14.60;84.40;;;;;;4953728;28;20148;-93
2021/06/14 20:42:18;;;;;;;14.23;2.17;;;14.60;84.80;;;;;;4953570;28;20022;-93
2021/06/14 20:44:44;;;;;;;10.77;1.90;;;14.50;85.30;;;;;;4954126;28;20030;-96
2021/06/14 20:47:11;;;;;;;12.55;2.40;;;14.50;85.90;;;;;;4948150;28;20019;-93
2021/06/14 20:49:38;;;;;;;8.70;2.13;;;14.40;86.40;;;;;;4960745;28;20118;-94
2021/06/14 20:52:07;;;;;;;5.82;1.75;;;14.40;86.80;;;;;;4960973;28;20022;-94
2021/06/14 20:54:41;;;;;;;11.23;2.03;;;14.30;87.30;;;;;;4961964;28;20025;-95
2021/06/14 20:57:07;;;;;;;11.07;2.40;;;14.30;87.90;;;;;;4961608;28;20042;-93
2021/06/14 20:59:35;;;;;;;7.50;2.25;;;14.30;88.30;;;;;;4960403;28;20122;-94
2021/06/14 21:02:01;;;;;;;9.13;2.13;;;14.20;88.70;;;;;;4962377;28;20046;-94
2021/06/14 21:04:27;;;;;;;12.80;2.08;;;14.20;89.10;;;;;;4962890;28;20439;-94
2021/06/14 21:06:52;;;;;;;10.18;2.70;;;14.10;89.60;;;;;;4963344;28;20037;-93
2021/06/14 21:09:24;;;;;;;19.15;2.22;;;14.10;90.00;;;;;;4979476;28;20498;-93
2021/06/14 21:11:53;;;;;;;8.63;1.98;;;14.10;90.50;;;;;;4962012;28;20099;-94
2021/06/14 21:14:19;;;;;;;12.60;2.08;;;14.00;90.30;;;;;;4962625;28;20019;-94
2021/06/14 21:16:45;;;;;;;10.23;2.50;;;13.90;90.50;;;;;;4962011;28;20094;-93
2021/06/14 21:19:10;;;;;;;10.85;2.75;;;13.90;90.70;;;;;;4962311;28;20031;-94
2021/06/14 21:21:36;;;;;;;14.23;2.53;;;13.80;90.90;;;;;;4963719;28;20126;-93
2021/06/14 21:24:02;;;;;;;14.95;2.78;;;13.80;91.10;;;;;;4962464;28;20034;-93
2021/06/14 21:26:28;;;;;;;10.30;2.40;;;13.70;91.30;;;;;;4962177;28;20062;-94
2021/06/14 21:28:54;;;;;;;13.60;1.90;;;13.70;91.50;;;;;;4963112;28;20042;-94
2021/06/14 21:31:20;;;;;;;7.15;1.83;;;13.60;91.70;;;;;;4961954;28;20027;-93
2021/06/14 21:33:46;;;;;;;10.93;2.10;;;13.50;91.90;;;;;;4964880;28;20028;-94
2021/06/14 21:36:11;;;;;;;11.32;2.65;;;13.40;92.20;;;;;;4963512;28;20023;-94
2021/06/14 21:38:37;;;;;;;12.20;2.42;;;13.40;92.40;;;;;;4967277;28;20448;-93
2021/06/14 21:41:04;;;;;;;11.45;1.95;;;13.30;92.60;;;;;;4963350;28;20054;-93
2021/06/14 21:43:31;;;;;;;12.32;2.20;;;13.30;92.90;;;;;;4958608;28;20033;-94
2021/06/14 21:45:58;;;;;;;8.07;1.60;;;13.30;93.10;;;;;;4961716;28;20042;-95
2021/06/14 21:48:23;;;;;;;6.50;1.88;;;13.20;93.30;;;;;;4962018;28;20030;-93
2021/06/14 21:50:49;;;;;;;10.75;2.40;;;13.20;93.40;;;;;;4957881;28;20019;-93
2021/06/14 21:53:15;;;;;;;14.27;1.77;;;13.30;93.60;;;;;;4961929;28;20034;-93
2021/06/14 21:55:41;;;;;;;12.40;2.55;;;13.20;93.70;;;;;;4961180;28;20477;-93
2021/06/14 21:58:07;;;;;;;12.30;2.75;;;13.20;93.80;;;;;;4961232;28;20046;-92
2021/06/14 22:00:33;;;;;;;7.30;1.88;;;13.20;94.00;;;;;;4960944;28;20027;-93
2021/06/14 22:02:59;;;;;;;13.02;1.80;;;13.20;94.20;;;;;;4960219;28;20027;-94
2021/06/14 22:05:26;;;;;;;13.07;2.10;;;13.10;94.30;;;;;;4960421;28;20035;-91
2021/06/14 22:07:53;;;;;;;9.65;2.40;;;13.10;94.60;;;;;;4944368;28;20081;-92
2021/06/14 22:10:19;;;;;;;12.18;2.05;;;13.00;95.10;;;;;;4960524;28;20058;-94
2021/06/14 22:12:44;;;;;;;6.80;1.70;;;13.00;95.00;;;;;;4959463;28;20038;-92
2021/06/14 22:15:11;;;;;;;11.13;1.95;;;12.90;95.30;;;;;;4960040;28;20441;-92
2021/06/14 22:17:37;;;;;;;11.90;2.45;;;12.90;95.60;;;;;;4959160;28;20019;-93
2021/06/14 22:20:04;;;;;;;11.38;2.30;;;12.80;95.90;;;;;;4958787;28;20034;-93
2021/06/14 22:22:32;;;;;;;10.35;2.65;;;12.70;96.20;;;;;;4958282;28;20025;-92
2021/06/14 22:24:58;;;;;;;5.82;1.83;;;12.70;96.50;;;;;;4959087;28;20085;-92
2021/06/14 22:27:24;;;;;;;7.93;1.73;;;12.70;96.90;;;;;;4959912;28;20468;-93
2021/06/14 22:29:50;;;;;;;16.35;2.72;;;12.70;97.10;;;;;;4959820;28;20396;-93
2021/06/14 22:32:15;;;;;;;11.00;2.30;;;12.70;97.40;;;;;;4960151;28;20023;-92
2021/06/14 22:34:42;;;;;;;14.43;2.88;;;12.70;97.60;;;;;;4960675;28;20035;-92
2021/06/14 22:37:08;;;;;;;10.23;2.03;;;12.70;97.80;;;;;;4959522;28;20025;-93
2021/06/14 22:39:34;;;;;;;16.75;2.38;;;12.70;98.00;;;;;;4959964;28;20031;-93
2021/06/14 22:42:00;;;;;;;11.95;2.88;;;12.60;98.20;;;;;;4960361;28;20131;-94
2021/06/14 22:44:26;;;;;;;13.50;2.22;;;12.50;98.50;;;;;;4963742;28;20050;-93
2021/06/14 22:46:52;;;;;;;14.73;3.47;;;12.50;98.70;;;;;;4964443;28;20027;-92
2021/06/14 22:49:18;;;;;;;12.52;2.70;;;12.50;98.90;;;;;;4964614;28;20046;-92
2021/06/14 22:51:43;;;;;;;10.95;2.80;;;12.40;99.10;;;;;;4964490;28;20022;-94
2021/06/14 22:54:10;;;;;;;10.05;2.42;;;12.30;99.20;;;;;;4964879;28;20023;-93
2021/06/14 22:56:36;;;;;;;11.07;2.53;;;12.20;99.40;;;;;;4964139;28;20018;-93
2021/06/14 22:59:02;;;;;;;11.75;2.47;;;12.10;99.70;;;;;;4972124;28;20058;-93
2021/06/14 23:01:28;;;;;;;11.55;2.42;;;12.10;99.90;;;;;;4964234;28;20027;-93
2021/06/14 23:03:54;;;;;;;14.88;2.25;;;12.10;99.90;;;;;;4964260;28;20023;-93
2021/06/14 23:06:19;;;;;;;10.55;2.20;;;12.10;99.90;;;;;;4962932;28;20054;-93
2021/06/14 23:08:45;;;;;;;8.65;2.03;;;12.00;99.90;;;;;;4963322;28;20038;-94
2021/06/14 23:11:13;;;;;;;11.40;2.13;;;12.00;99.90;;;;;;4965522;28;20031;-93
2021/06/14 23:13:40;;;;;;;15.32;2.72;;;12.00;99.90;;;;;;4972731;28;20019;-93
2021/06/14 23:16:07;;;;;;;14.18;2.60;;;12.00;99.90;;;;;;4970531;28;20098;-93
2021/06/14 23:18:32;;;;;;;10.38;1.98;;;12.00;99.90;;;;;;4966224;28;20023;-92
2021/06/14 23:20:58;;;;;;;11.85;2.38;;;11.90;99.90;;;;;;4969541;28;20066;-93
2021/06/14 23:23:24;;;;;;;11.50;2.60;;;12.00;99.90;;;;;;4964278;28;20058;-93
2021/06/14 23:25:51;;;;;;;7.68;2.20;;;11.90;99.90;;;;;;4963614;28;20025;-92
2021/06/14 23:28:16;;;;;;;8.38;2.65;;;11.80;99.90;;;;;;4963169;28;20145;-92
2021/06/14 23:30:42;;;;;;;10.73;2.38;;;11.80;99.90;;;;;;4963307;28;20073;-93
2021/06/14 23:33:08;;;;;;;12.07;2.72;;;11.70;99.90;;;;;;4963874;28;20030;-92
2021/06/14 23:35:34;;;;;;;11.98;3.22;;;11.60;99.90;;;;;;4962908;28;20019;-93
2021/06/14 23:38:00;;;;;;;15.43;2.55;;;11.60;99.90;;;;;;4962926;28;20542;-93
2021/06/14 23:40:26;;;;;;;11.20;2.47;;;11.50;99.90;;;;;;4963910;28;20035;-93
2021/06/14 23:42:52;;;;;;;12.57;2.70;;;11.40;99.90;;;;;;4963519;28;20070;-93
2021/06/14 23:45:18;;;;;;;12.30;2.38;;;11.20;99.90;;;;;;4960384;28;20551;-93
2021/06/14 23:47:46;;;;;;;11.65;2.47;;;11.20;99.90;;;;;;4960471;28;20476;-93
2021/06/14 23:50:12;;;;;;;11.70;2.92;;;11.20;99.90;;;;;;4959595;28;20097;-92
2021/06/14 23:52:38;;;;;;;11.88;2.95;;;11.10;99.90;;;;;;4960325;28;20029;-92
2021/06/14 23:55:05;;;;;;;14.70;2.60;;;11.10;99.90;;;;;;4963727;28;20480;-93
2021/06/14 23:57:34;;;;;;;8.25;2.45;;;11.00;99.90;;;;;;4962946;28;20047;-93
